Time;durP1;ratioP1;P1;durP2;ratioP2;P2;SDS_P1;SDS_P2;PMS_P1;PMS_P2;Temp;Humidity;BMP_temperature;BMP_pressure;BME280_temperature;BME280_humidity;BME280_pressure;Samples;Min_cycle;Max_cycle;Signal;HPM_P1;HPM_P2
2021/08/04 00:00:07;;;;;;;3.40;3.10;;;13.00;1.40;;;;;;644547;212;31605;-71
2021/08/04 00:02:48;;;;;;;3.55;2.85;;;13.00;1.40;;;;;;646033;212;31591;-71
2021/08/04 00:05:30;;;;;;;3.10;2.80;;;13.00;1.40;;;;;;646930;216;32183;-72
2021/08/04 00:08:14;;;;;;;3.97;2.50;;;13.10;1.40;;;;;;646338;212;31659;-71
2021/08/04 00:10:55;;;;;;;3.03;2.50;;;13.00;1.40;;;;;;646267;216;31576;-72
2021/08/04 00:13:36;;;;;;;2.70;2.30;;;13.10;1.40;;;;;;645849;212;31634;-72
2021/08/04 00:16:17;;;;;;;4.90;2.50;;;13.10;1.40;;;;;;645980;216;31610;-72
2021/08/04 00:18:58;;;;;;;3.00;2.70;;;13.10;1.40;;;;;;646483;216;31891;-72
2021/08/04 00:21:39;;;;;;;2.80;2.40;;;13.00;1.40;;;;;;646475;212;31575;-71
2021/08/04 00:24:20;;;;;;;2.83;2.47;;;13.10;1.40;;;;;;646846;216;42421;-72
2021/08/04 00:27:01;;;;;;;2.87;2.20;;;13.10;1.40;;;;;;647081;216;31582;-73
2021/08/04 00:29:42;;;;;;;3.00;2.60;;;13.10;1.40;;;;;;646503;216;31596;-71
2021/08/04 00:32:23;;;;;;;3.20;2.60;;;13.10;1.40;;;;;;645104;216;32162;-73
2021/08/04 00:35:51;;;;;;;2.70;2.50;;;13.10;1.40;;;14.10;100.00;95317.48;647319;212;31602;-72
2021/08/04 00:38:33;;;;;;;3.83;2.35;;;13.10;1.40;;;14.12;100.00;95312.33;646173;216;34733;-71
2021/08/04 00:41:14;;;;;;;3.10;2.60;;;13.10;1.40;;;14.08;100.00;95315.13;636619;216;31751;-73
2021/08/04 00:43:56;;;;;;;2.87;2.40;;;13.00;1.40;;;14.04;100.00;95317.93;647235;213;33871;-71
2021/08/04 00:46:40;;;;;;;2.60;2.30;;;13.00;1.40;;;14.06;100.00;95317.27;618434;222;31963;-72
2021/08/04 00:49:22;;;;;;;3.03;2.60;;;13.00;1.40;;;14.03;100.00;95317.17;646176;212;32171;-71
2021/08/04 00:52:05;;;;;;;2.55;2.35;;;13.00;1.40;;;14.03;100.00;95315.34;645981;216;42763;-72
2021/08/04 00:54:46;;;;;;;3.33;2.70;;;13.00;1.40;;;13.96;100.00;95312.56;647532;216;32176;-71
2021/08/04 00:57:28;;;;;;;3.80;2.80;;;12.90;1.40;;;13.95;100.00;95317.29;646437;212;32429;-72
2021/08/04 01:00:11;;;;;;;4.80;3.20;;;12.90;1.40;;;13.99;100.00;95315.63;618885;226;33751;-72
2021/08/04 01:02:56;;;;;;;3.90;3.00;;;12.90;1.40;;;14.02;100.00;95319.91;644806;216;31584;-72
2021/08/04 01:05:38;;;;;;;4.93;3.10;;;12.80;1.40;;;14.06;100.00;95315.42;647164;213;32531;-72
2021/08/04 01:08:24;;;;;;;4.40;3.10;;;12.80;1.40;;;14.02;100.00;95314.09;646658;216;31699;-72
2021/08/04 01:11:13;;;;;;;3.03;2.72;;;12.80;1.40;;;13.95;100.00;95316.47;599732;233;32449;-73
2021/08/04 01:13:55;;;;;;;5.80;2.90;;;12.80;1.40;;;14.01;100.00;95308.23;647281;216;31877;-72
2021/08/04 01:16:37;;;;;;;3.40;3.00;;;12.80;1.40;;;13.99;100.00;95308.80;647504;212;34387;-72
2021/08/04 01:19:38;;;;;;;3.30;3.00;;;12.70;1.40;;;13.97;100.00;95300.55;645359;212;31697;-71
2021/08/04 01:22:45;;;;;;;3.60;3.30;;;12.70;1.40;;;14.07;100.00;95300.31;646124;216;31643;-72
2021/08/04 01:25:32;;;;;;;5.70;3.17;;;12.70;1.40;;;14.02;100.00;95300.44;647407;216;31715;-71
2021/08/04 01:28:36;;;;;;;4.80;3.30;;;12.70;1.40;;;14.00;100.00;95305.92;647176;216;31601;-72
2021/08/04 01:31:17;;;;;;;4.25;3.85;;;12.70;1.40;;;14.04;100.00;95304.52;645594;216;31566;-72
2021/08/04 01:35:51;;;;;;;3.92;3.40;;;12.60;1.40;;;14.04;100.00;95307.09;646576;216;31624;-70
2021/08/04 01:38:32;;;;;;;3.43;3.10;;;12.60;1.40;;;14.06;100.00;95306.72;619229;222;32111;-71
2021/08/04 01:41:17;;;;;;;3.70;3.40;;;12.60;1.40;;;14.00;100.00;95304.20;636362;216;31722;-71
2021/08/04 01:43:59;;;;;;;5.80;3.63;;;12.60;1.40;;;13.96;100.00;95303.89;646835;216;32594;-71
2021/08/04 01:46:40;;;;;;;3.80;3.40;;;12.60;1.40;;;13.94;100.00;95303.30;647140;216;31564;-70
2021/08/04 01:49:22;;;;;;;5.90;3.90;;;12.60;1.40;;;13.92;100.00;95300.00;645742;216;31618;-70
2021/08/04 01:52:07;;;;;;;3.70;3.10;;;12.50;1.40;;;13.94;100.00;95291.85;647819;212;32029;-71
2021/08/04 01:59:29;;;;;;;3.40;3.10;;;12.60;1.40;;;13.87;100.00;95284.26;647081;212;31632;-72
2021/08/04 02:02:16;;;;;;;3.50;3.20;;;12.50;1.40;;;13.85;100.00;95284.77;646179;212;31774;-70
2021/08/04 02:04:57;;;;;;;4.05;3.42;;;12.50;1.40;;;13.82;100.00;95286.34;645743;212;31840;-71
2021/08/04 02:08:06;;;;;;;4.10;3.35;;;12.50;1.40;;;13.79;100.00;95282.09;647172;212;31596;-71
2021/08/04 02:10:54;;;;;;;3.60;3.03;;;12.50;1.40;;;13.70;100.00;95281.46;646716;216;35088;-71
2021/08/04 02:13:45;;;;;;;5.57;3.45;;;12.50;1.40;;;13.76;100.00;95281.10;646612;212;31604;-71
2021/08/04 02:16:34;;;;;;;3.70;3.20;;;12.50;1.40;;;13.71;100.00;95285.36;619046;226;31909;-71
2021/08/04 02:19:17;;;;;;;3.30;3.00;;;12.50;1.40;;;13.81;100.00;95285.84;645343;216;32450;-70
2021/08/04 02:22:02;;;;;;;4.03;3.10;;;12.50;1.40;;;13.87;100.00;95289.66;618062;226;31937;-71
2021/08/04 02:24:45;;;;;;;5.33;3.70;;;12.50;1.40;;;13.94;100.00;95285.14;619810;226;31987;-71
2021/08/04 02:27:26;;;;;;;3.90;3.60;;;12.50;1.40;;;13.99;100.00;95287.14;646538;216;42188;-71
2021/08/04 02:30:08;;;;;;;6.30;3.30;;;12.40;1.40;;;13.92;100.00;95286.34;631421;221;31774;-71
2021/08/04 02:32:50;;;;;;;4.83;4.10;;;12.40;1.40;;;14.00;100.00;95283.64;646468;212;31663;-72
2021/08/04 02:35:52;;;;;;;4.32;3.33;;;12.40;1.40;;;13.94;100.00;95281.43;646211;216;31757;-71
2021/08/04 02:38:37;;;;;;;4.20;3.27;;;12.40;1.40;;;13.99;100.00;95278.17;646513;212;34536;-71
2021/08/04 02:41:19;;;;;;;5.75;3.97;;;12.40;1.40;;;14.07;100.00;95276.83;636498;212;32648;-71
2021/08/04 02:44:01;;;;;;;6.97;3.57;;;12.40;1.40;;;14.00;100.00;95273.54;646347;216;32021;-71
2021/08/04 02:46:45;;;;;;;6.70;4.30;;;12.50;1.40;;;14.04;100.00;95272.58;619902;226;32086;-70
2021/08/04 02:49:27;;;;;;;5.73;3.60;;;12.50;1.40;;;13.99;100.00;95269.80;646549;212;31596;-71
2021/08/04 02:52:09;;;;;;;4.97;4.03;;;12.40;1.40;;;14.01;100.00;95272.25;646567;216;32609;-70
2021/08/04 02:54:50;;;;;;;4.68;3.95;;;12.40;1.40;;;14.01;100.00;95269.87;647025;216;31591;-71
2021/08/04 02:57:32;;;;;;;4.80;3.60;;;12.40;1.40;;;13.98;100.00;95275.42;646791;216;31564;-72
2021/08/04 03:00:14;;;;;;;4.53;3.90;;;12.40;1.40;;;14.01;100.00;95272.98;646563;212;31596;-71
2021/08/04 03:02:56;;;;;;;5.60;4.10;;;12.40;1.40;;;14.06;100.00;95263.49;646424;212;31609;-71
2021/08/04 03:05:37;;;;;;;3.90;3.50;;;12.40;1.40;;;14.03;100.00;95274.61;645818;216;35492;-71
2021/08/04 03:08:19;;;;;;;4.20;3.80;;;12.50;1.40;;;13.99;100.00;95273.73;646716;216;31591;-71
2021/08/04 03:11:01;;;;;;;4.23;3.43;;;12.40;1.40;;;13.95;100.00;95272.11;646863;212;31612;-71
2021/08/04 03:13:43;;;;;;;4.55;3.67;;;12.40;1.40;;;13.93;100.00;95269.64;646427;212;31588;-72
2021/08/04 03:16:27;;;;;;;4.03;3.70;;;12.40;1.40;;;13.86;100.00;95269.36;647015;216;32167;-72
2021/08/04 03:19:09;;;;;;;4.87;3.20;;;12.40;1.40;;;13.79;100.00;95265.73;647930;212;32039;-71
2021/08/04 03:21:51;;;;;;;3.70;3.35;;;12.40;1.40;;;13.69;100.00;95272.31;645274;216;32190;-72
2021/08/04 03:24:32;;;;;;;3.80;3.50;;;12.30;1.40;;;13.68;100.00;95264.92;646192;216;32218;-71
2021/08/04 03:27:14;;;;;;;4.15;3.75;;;12.30;1.40;;;13.64;100.00;95268.33;647220;216;31577;-72
2021/08/04 03:29:56;;;;;;;4.50;3.97;;;12.30;1.40;;;13.63;100.00;95269.25;646665;216;31583;-73
2021/08/04 03:32:40;;;;;;;5.70;4.00;;;12.30;1.40;;;13.63;100.00;95271.28;646924;212;31963;-72
2021/08/04 03:35:51;;;;;;;4.22;3.50;;;12.40;1.40;;;13.51;100.00;95262.75;647075;212;31594;-71
2021/08/04 03:38:32;;;;;;;4.30;3.20;;;12.30;1.40;;;13.55;100.00;95263.59;647145;212;31588;-71
2021/08/04 03:41:14;;;;;;;4.80;3.77;;;12.30;1.40;;;13.63;100.00;95261.03;646247;216;33338;-72
2021/08/04 03:43:56;;;;;;;5.65;3.58;;;12.30;1.40;;;13.64;100.00;95261.75;617936;226;31915;-72
2021/08/04 03:46:38;;;;;;;4.70;3.70;;;12.30;1.40;;;13.64;100.00;95257.08;646261;216;31575;-72
2021/08/04 03:49:19;;;;;;;3.90;3.37;;;12.30;1.40;;;13.58;100.00;95259.84;646666;216;31713;-72
2021/08/04 03:52:01;;;;;;;6.40;3.70;;;12.30;1.40;;;13.60;100.00;95256.12;646863;216;31601;-72
2021/08/04 03:54:43;;;;;;;8.25;3.70;;;12.30;1.40;;;13.66;100.00;95255.31;646847;212;31689;-71
2021/08/04 03:57:25;;;;;;;5.50;3.73;;;12.30;1.40;;;13.64;100.00;95257.38;619397;222;32161;-72
2021/08/04 04:00:07;;;;;;;4.50;3.70;;;12.20;1.40;;;13.50;100.00;95247.30;646588;216;31686;-71
2021/08/04 04:02:49;;;;;;;4.00;3.30;;;12.20;1.40;;;13.59;100.00;95248.14;645556;216;31692;-72
2021/08/04 04:05:31;;;;;;;4.83;3.10;;;12.30;1.40;;;13.59;100.00;95251.77;646620;212;31718;-72
2021/08/04 04:08:14;;;;;;;4.03;3.50;;;12.30;1.40;;;13.79;100.00;95250.38;645043;216;31602;-76
2021/08/04 04:11:02;;;;;;;3.90;3.50;;;12.30;1.40;;;13.84;100.00;95249.66;646734;216;31599;-72
2021/08/04 04:13:49;;;;;;;3.80;3.40;;;12.30;1.40;;;13.75;100.00;95247.70;646467;213;31680;-72
2021/08/04 04:16:31;;;;;;;4.60;3.50;;;12.20;1.40;;;13.86;100.00;95245.77;646399;212;31586;-72
2021/08/04 04:19:12;;;;;;;4.10;3.20;;;12.30;1.40;;;13.76;100.00;95245.63;646654;212;31595;-72
2021/08/04 04:21:54;;;;;;;3.83;3.20;;;12.30;1.40;;;13.60;100.00;95245.50;646715;216;31613;-72
2021/08/04 04:24:36;;;;;;;4.60;3.70;;;12.20;1.40;;;13.63;100.00;95247.72;645593;216;31846;-72
2021/08/04 04:27:17;;;;;;;4.13;3.30;;;12.20;1.40;;;13.62;100.00;95250.11;646332;212;31598;-72
2021/08/04 04:29:59;;;;;;;3.77;2.90;;;12.30;1.40;;;13.62;100.00;95252.60;647426;216;31585;-72
2021/08/04 04:32:41;;;;;;;5.27;3.30;;;12.30;1.40;;;13.67;100.00;95251.50;646160;216;36395;-72
2021/08/04 04:35:51;;;;;;;4.00;3.30;;;12.30;1.40;;;13.56;100.00;95253.64;647594;212;31600;-72
2021/08/04 04:38:32;;;;;;;4.20;3.10;;;12.30;1.40;;;13.68;100.00;95252.23;645642;216;31596;-71
2021/08/04 04:41:14;;;;;;;3.57;3.27;;;12.40;1.40;;;13.58;100.00;95254.61;608753;226;32118;-72
2021/08/04 04:43:56;;;;;;;4.40;3.70;;;12.40;1.40;;;13.75;100.00;95250.81;646745;216;35953;-71
2021/08/04 04:46:37;;;;;;;3.10;2.80;;;12.50;1.40;;;13.79;100.00;95258.66;647240;216;31801;-72
2021/08/04 04:49:19;;;;;;;3.20;2.90;;;12.50;1.40;;;13.67;100.00;95263.99;645588;212;31608;-71
2021/08/04 04:52:01;;;;;;;3.73;3.00;;;12.50;1.40;;;13.55;100.00;95260.86;646322;212;31590;-71
2021/08/04 04:54:42;;;;;;;3.70;3.30;;;12.50;1.40;;;13.63;100.00;95253.52;645499;216;38214;-72
2021/08/04 04:57:24;;;;;;;3.87;3.30;;;12.60;1.40;;;13.92;100.00;95257.89;646210;213;38325;-72
2021/08/04 05:00:07;;;;;;;5.07;3.20;;;12.70;1.40;;;13.83;100.00;95259.55;645772;216;33759;-71
2021/08/04 05:02:52;;;;;;;3.72;3.20;;;12.70;1.40;;;13.86;100.00;95263.73;647324;216;33015;-72
2021/08/04 05:05:33;;;;;;;4.22;3.47;;;12.70;1.40;;;14.06;100.00;95264.69;645320;216;31599;-72
2021/08/04 05:08:18;;;;;;;3.10;2.90;;;12.80;1.40;;;14.17;100.00;95266.98;647295;212;34347;-71
2021/08/04 05:11:00;;;;;;;3.10;2.80;;;12.80;1.40;;;14.00;100.00;95273.87;645605;216;31598;-72
2021/08/04 05:13:41;;;;;;;3.33;2.70;;;12.80;1.40;;;14.06;100.00;95269.05;646190;216;31599;-72
2021/08/04 05:16:23;;;;;;;3.87;2.80;;;12.90;1.40;;;14.07;100.00;95272.55;619798;226;32534;-72
2021/08/04 05:19:05;;;;;;;3.10;2.60;;;12.90;1.40;;;14.31;100.00;95266.63;647884;212;33527;-71
2021/08/04 05:21:50;;;;;;;4.05;2.85;;;12.90;1.40;;;14.37;100.00;95271.33;645259;216;42244;-72
2021/08/04 05:24:31;;;;;;;3.20;2.90;;;13.00;1.40;;;14.36;100.00;95275.16;646468;216;31999;-73
2021/08/04 05:27:16;;;;;;;3.42;2.97;;;13.00;1.40;;;14.31;100.00;95275.87;617413;222;32471;-71
2021/08/04 05:30:00;;;;;;;4.15;2.60;;;13.00;1.40;;;14.36;100.00;95273.35;646456;216;41798;-72
2021/08/04 05:32:47;;;;;;;3.65;2.85;;;13.10;1.40;;;14.34;100.00;95268.86;646130;216;39764;-71
2021/08/04 05:35:58;;;;;;;3.60;2.50;;;13.10;1.40;;;14.42;100.00;95266.03;645928;216;31605;-71
2021/08/04 05:38:39;;;;;;;2.80;2.60;;;13.20;1.40;;;14.46;100.00;95271.39;645652;212;34073;-71
2021/08/04 05:41:21;;;;;;;3.08;2.60;;;13.20;1.40;;;14.51;100.00;95270.88;616830;224;31887;-75
2021/08/04 05:44:03;;;;;;;4.10;2.50;;;13.20;1.40;;;14.54;100.00;95266.38;645510;216;42820;-72
2021/08/04 05:46:45;;;;;;;3.67;2.70;;;13.30;1.40;;;14.79;100.00;95261.04;646189;216;31684;-71
2021/08/04 05:49:27;;;;;;;5.85;2.65;;;13.40;1.40;;;14.96;100.00;95261.39;647385;212;31568;-71
2021/08/04 05:52:09;;;;;;;4.47;2.70;;;13.50;1.40;;;15.10;100.00;95264.52;647493;216;42735;-71
2021/08/04 05:54:51;;;;;;;3.78;2.70;;;13.60;1.40;;;14.95;100.00;95274.84;646609;216;32204;-70
2021/08/04 05:57:38;;;;;;;4.30;2.90;;;13.60;1.40;;;14.90;100.00;95271.02;630620;221;32162;-71
2021/08/04 06:00:25;;;;;;;5.12;2.67;;;13.60;1.40;;;15.14;100.00;95268.14;648086;216;35663;-71
2021/08/04 06:03:07;;;;;;;3.28;2.80;;;13.80;1.40;;;15.27;100.00;95263.92;646582;212;31652;-70
2021/08/04 06:05:48;;;;;;;2.60;2.10;;;13.90;1.40;;;15.21;100.00;95263.75;647406;216;42302;-70
2021/08/04 06:08:36;;;;;;;4.18;2.20;;;13.80;1.40;;;14.99;100.00;95267.94;646299;216;31580;-72
2021/08/04 06:11:24;;;;;;;2.65;2.45;;;13.80;1.40;;;15.21;100.00;95279.06;647167;216;31908;-72
2021/08/04 06:14:06;;;;;;;3.75;2.15;;;13.90;1.40;;;15.28;100.00;95285.41;645447;216;31591;-71
2021/08/04 06:16:47;;;;;;;3.85;2.40;;;14.00;1.40;;;15.34;100.00;95276.82;647102;216;31584;-72
2021/08/04 06:19:35;;;;;;;2.35;2.15;;;14.10;1.40;;;15.66;100.00;95273.77;645957;216;31608;-71
2021/08/04 06:22:23;;;;;;;4.70;2.10;;;14.20;1.40;;;15.77;100.00;95275.84;647301;212;31560;-71
2021/08/04 06:25:05;;;;;;;4.50;2.30;;;14.30;1.40;;;16.06;100.00;95276.55;648677;212;31553;-71
2021/08/04 06:27:46;;;;;;;4.32;2.40;;;14.50;1.40;;;16.02;100.00;95272.95;646807;216;31555;-72
2021/08/04 06:30:28;;;;;;;2.67;2.10;;;14.40;1.40;;;16.20;100.00;95271.22;617482;222;31972;-71
2021/08/04 06:35:51;;;;;;;4.15;1.95;;;14.40;1.40;;;16.08;100.00;95275.16;645873;212;31623;-71
2021/08/04 06:38:38;;;;;;;2.08;1.87;;;14.50;1.40;;;16.32;100.00;95278.61;618308;226;32163;-71
2021/08/04 06:41:20;;;;;;;2.85;1.80;;;14.70;1.40;;;16.67;100.00;95277.22;635861;216;32300;-71
2021/08/04 06:44:02;;;;;;;2.45;1.73;;;14.80;1.40;;;16.63;100.00;95273.02;618117;222;31931;-71
2021/08/04 06:46:43;;;;;;;2.28;2.00;;;14.90;1.40;;;16.92;100.00;95276.05;645634;212;31587;-72
2021/08/04 06:49:31;;;;;;;3.05;1.80;;;15.10;1.40;;;16.77;100.00;95278.78;646570;216;31577;-71
2021/08/04 06:54:53;;;;;;;2.70;1.90;;;15.20;1.40;;;16.74;100.00;95283.08;645789;216;32056;-71
2021/08/04 06:57:37;;;;;;;1.40;1.30;;;15.20;1.40;;;16.61;100.00;95281.02;617440;223;31906;-71
2021/08/04 07:00:18;;;;;;;2.10;1.90;;;15.10;1.40;;;16.79;100.00;95282.12;644236;212;31754;-71
2021/08/04 07:03:06;;;;;;;1.90;1.60;;;15.20;1.40;;;16.96;100.00;95281.28;646711;216;31695;-72
2021/08/04 07:05:54;;;;;;;2.92;2.17;;;15.30;1.40;;;17.02;100.00;95279.87;645863;216;31540;-71
2021/08/04 07:08:41;;;;;;;1.98;1.60;;;15.40;1.40;;;17.25;100.00;95274.34;646597;216;31587;-71
2021/08/04 07:11:23;;;;;;;2.90;1.70;;;15.40;1.40;;;17.46;100.00;95274.27;630172;222;31698;-70
2021/08/04 07:14:11;;;;;;;1.77;1.60;;;15.50;1.40;;;17.96;100.00;95277.98;645399;216;31627;-71
2021/08/04 07:16:58;;;;;;;2.33;1.90;;;16.00;1.40;;;17.84;100.00;95282.02;645137;216;31573;-70
2021/08/04 07:19:46;;;;;;;1.83;1.55;;;15.90;1.40;;;17.69;100.00;95283.28;647853;216;32092;-71
2021/08/04 07:22:28;;;;;;;6.10;5.50;;;15.90;1.40;;;17.94;98.38;95280.86;645427;216;32067;-71
2021/08/04 07:25:10;;;;;;;4.12;3.60;;;16.10;1.40;;;18.25;94.73;95269.51;644684;216;32077;-71
2021/08/04 07:27:58;;;;;;;3.60;2.67;;;16.20;1.40;;;18.01;95.61;95273.33;647480;216;32126;-72
2021/08/04 07:30:45;;;;;;;2.15;1.70;;;16.20;1.40;;;17.92;94.89;95268.30;646498;216;31557;-71
2021/08/04 07:35:51;;;;;;;3.10;1.20;;;16.00;1.40;;;17.67;91.06;95268.19;647097;216;42185;-71
2021/08/04 07:38:33;;;;;;;1.70;1.30;;;15.90;1.40;;;18.35;92.82;95274.93;619079;225;31826;-71
2021/08/04 07:41:14;;;;;;;1.35;1.05;;;16.20;1.40;;;17.30;91.70;95273.20;645592;212;31567;-72
2021/08/04 07:43:58;;;;;;;1.20;1.10;;;15.80;1.40;;;17.47;91.01;95272.17;645730;216;31511;-71
2021/08/04 07:46:45;;;;;;;1.80;0.90;;;16.00;1.40;;;17.46;88.47;95274.22;646387;216;31514;-71
2021/08/04 07:49:33;;;;;;;4.10;0.90;;;15.80;1.40;;;17.40;89.58;95274.78;647397;216;31917;-72
2021/08/04 07:52:15;;;;;;;1.35;1.15;;;15.70;1.40;;;17.51;93.00;95275.20;646838;216;42771;-71
2021/08/04 07:54:56;;;;;;;1.08;0.90;;;15.80;1.40;;;18.05;91.98;95269.61;618900;226;31945;-71
2021/08/04 07:57:44;;;;;;;1.45;1.00;;;16.10;1.40;;;17.77;91.53;95269.22;646773;213;31560;-71
2021/08/04 08:00:27;;;;;;;1.30;1.20;;;16.00;1.40;;;18.41;89.88;95267.41;647304;212;42787;-71
2021/08/04 08:03:07;;;;;;;2.20;1.37;;;16.30;1.40;;;17.93;90.80;95265.47;630124;222;31828;-71
2021/08/04 08:05:50;;;;;;;1.40;1.30;;;16.10;1.40;;;17.72;93.14;95262.02;645849;216;32381;-71
2021/08/04 08:08:37;;;;;;;1.50;1.27;;;15.90;1.40;;;17.60;95.09;95267.33;618673;226;31854;-71
2021/08/04 08:11:19;;;;;;;1.20;1.10;;;15.90;1.40;;;17.57;95.76;95268.23;646072;212;31550;-71
2021/08/04 08:14:07;;;;;;;1.60;1.40;;;15.90;1.40;;;17.82;96.79;95265.27;646469;216;32111;-72
2021/08/04 08:16:49;;;;;;;1.48;1.33;;;16.00;1.40;;;17.79;96.01;95267.49;619779;222;32846;-71
2021/08/04 08:19:38;;;;;;;1.20;1.10;;;16.00;1.40;;;17.74;93.48;95266.83;646984;216;31566;-72
2021/08/04 08:22:18;;;;;;;1.80;1.20;;;15.90;1.40;;;17.45;94.32;95272.00;646865;216;31733;-71
2021/08/04 08:25:00;;;;;;;1.10;0.90;;;15.80;1.40;;;18.04;91.27;95271.05;631407;221;31700;-71
2021/08/04 08:27:42;;;;;;;2.37;1.33;;;16.10;1.40;;;17.77;91.59;95270.33;646129;212;31611;-71
2021/08/04 08:30:24;;;;;;;2.40;1.20;;;16.00;1.40;;;17.79;90.80;95272.18;647892;212;31852;-71
2021/08/04 08:35:52;;;;;;;2.60;1.10;;;16.20;1.40;;;18.54;88.80;95269.13;646866;212;31921;-72
2021/08/04 08:38:33;;;;;;;1.40;1.10;;;16.50;1.40;;;18.64;88.62;95270.44;647293;216;31504;-71
2021/08/04 08:41:24;;;;;;;1.30;1.17;;;16.60;1.40;;;19.44;86.99;95275.05;611964;226;32249;-72
2021/08/04 08:44:11;;;;;;;1.60;1.20;;;16.90;1.40;;;19.77;85.46;95268.66;644498;216;31822;-72
2021/08/04 08:46:53;;;;;;;1.60;1.30;;;17.10;1.40;;;18.66;84.94;95263.09;619439;226;32535;-71
2021/08/04 08:49:36;;;;;;;2.03;1.08;;;16.40;1.40;;;18.37;84.58;95264.31;646983;212;32084;-71
2021/08/04 08:52:23;;;;;;;1.30;0.90;;;16.30;1.40;;;18.53;83.85;95263.69;646751;216;31603;-71
2021/08/04 08:55:05;;;;;;;1.70;0.90;;;16.50;1.40;;;18.83;82.70;95258.17;647332;216;31497;-70
2021/08/04 08:57:53;;;;;;;2.17;1.08;;;16.70;1.40;;;19.18;78.05;95255.57;646853;216;31507;-71
2021/08/04 09:00:41;;;;;;;1.52;1.40;;;17.00;1.40;;;19.79;80.64;95257.22;647164;216;31525;-71
2021/08/04 09:03:28;;;;;;;1.37;1.27;;;17.30;1.40;;;20.83;80.31;95252.13;646387;216;31529;-72
2021/08/04 09:06:12;;;;;;;1.12;1.02;;;17.70;1.40;;;21.01;77.13;95242.82;646434;212;31735;-70
2021/08/04 09:08:54;;;;;;;1.80;1.20;;;17.80;1.40;;;19.53;77.15;95244.51;645989;216;42213;-71
2021/08/04 09:11:38;;;;;;;2.30;1.20;;;17.00;1.40;;;19.81;79.53;95244.20;647292;212;31863;-72
2021/08/04 09:14:28;;;;;;;1.50;1.10;;;17.00;1.40;;;19.60;77.31;95242.72;645173;216;31725;-71
2021/08/04 09:17:11;;;;;;;1.20;1.10;;;17.00;1.40;;;20.00;79.76;95240.24;647141;216;31530;-71
2021/08/04 09:19:53;;;;;;;2.30;1.10;;;17.20;1.40;;;19.96;77.90;95239.87;645160;216;31698;-72
2021/08/04 09:22:35;;;;;;;1.70;1.40;;;17.40;1.40;;;19.85;77.11;95238.23;646984;212;31683;-68
2021/08/04 09:25:16;;;;;;;1.67;1.20;;;17.30;1.40;;;20.68;78.11;95238.66;619435;226;32024;-69
2021/08/04 09:27:58;;;;;;;1.67;1.00;;;17.60;1.40;;;20.75;74.27;95240.94;646551;216;32418;-69
2021/08/04 09:30:40;;;;;;;1.25;1.10;;;17.70;1.40;;;20.34;73.86;95234.09;647215;216;32309;-69
2021/08/04 09:35:52;;;;;;;1.50;1.10;;;17.60;1.40;;;21.32;74.28;95222.44;644770;212;31546;-69
2021/08/04 09:38:33;;;;;;;1.70;1.17;;;18.10;1.40;;;21.17;74.28;95220.94;646395;212;32174;-68
2021/08/04 09:41:16;;;;;;;1.35;1.25;;;18.30;1.40;;;20.29;76.45;95222.78;637406;216;32071;-68
2021/08/04 09:44:05;;;;;;;1.30;1.08;;;17.80;1.40;;;20.63;76.22;95209.06;647179;212;31733;-69
2021/08/04 09:46:47;;;;;;;1.50;1.40;;;17.90;1.40;;;21.92;71.19;95207.15;646056;212;31550;-69
2021/08/04 09:49:29;;;;;;;1.40;1.20;;;18.40;1.40;;;21.51;68.76;95208.42;646220;216;31604;-68
2021/08/04 09:52:11;;;;;;;1.58;1.10;;;18.30;1.40;;;21.61;71.84;95205.86;647580;212;31529;-68
2021/08/04 09:54:53;;;;;;;1.30;0.90;;;18.30;1.40;;;21.29;71.14;95208.25;645843;216;32753;-69
2021/08/04 09:57:42;;;;;;;1.60;1.05;;;18.10;1.40;;;20.54;73.25;95218.70;647545;212;32106;-69
2021/08/04 10:00:23;;;;;;;1.30;1.20;;;17.70;1.40;;;20.63;70.20;95218.03;646526;212;31863;-69
2021/08/04 10:03:12;;;;;;;1.20;1.10;;;17.80;1.40;;;20.25;71.17;95213.05;646625;212;31818;-67
2021/08/04 10:05:54;;;;;;;1.30;1.20;;;17.70;1.40;;;19.94;69.62;95214.98;645679;212;42291;-68
2021/08/04 10:08:35;;;;;;;1.20;1.10;;;17.40;1.40;;;20.53;74.52;95216.39;646748;216;31675;-69
2021/08/04 10:11:16;;;;;;;1.37;1.27;;;17.80;1.40;;;20.77;72.67;95209.34;645296;216;31468;-68
2021/08/04 10:13:58;;;;;;;1.37;1.20;;;18.00;1.40;;;19.97;70.48;95211.37;645870;212;32333;-69
2021/08/04 10:16:40;;;;;;;1.05;0.95;;;17.70;1.40;;;20.87;75.84;95202.09;646764;216;32060;-68
2021/08/04 10:19:22;;;;;;;1.50;1.40;;;18.10;1.40;;;-143.44;100.00;122422.95;646945;216;32325;-69
2021/08/04 10:22:03;;;;;;;1.15;1.02;;;18.70;1.40;;;;;;645811;216;31510;-69
2021/08/04 10:24:45;;;;;;;1.80;1.17;;;18.00;1.40;;;;;;647268;216;42170;-70
2021/08/04 10:27:25;;;;;;;1.10;1.00;;;18.10;1.40;;;;;;645834;212;42130;-69
2021/08/04 10:30:08;;;;;;;1.30;1.20;;;18.40;1.40;;;;;;647669;212;42178;-69
2021/08/04 10:32:48;;;;;;;1.48;1.20;;;18.50;1.40;;;;;;645701;212;31983;-70
2021/08/04 10:35:52;;;;;;;1.57;0.90;;;18.40;1.40;;;-143.44;100.00;122422.95;644729;216;31502;-69
2021/08/04 10:38:33;;;;;;;1.35;1.20;;;18.50;1.40;;;;;;645616;212;32557;-68
2021/08/04 10:41:15;;;;;;;2.17;1.15;;;18.20;1.40;;;;;;638336;216;32246;-69
2021/08/04 10:43:57;;;;;;;1.80;1.40;;;18.20;1.40;;;;;;644365;212;31569;-69
2021/08/04 10:46:38;;;;;;;1.50;1.20;;;18.10;1.40;;;;;;644913;216;31514;-71
2021/08/04 10:49:23;;;;;;;1.30;1.20;;;17.80;1.40;;;;;;646260;212;31506;-71
2021/08/04 10:52:04;;;;;;;1.10;0.90;;;17.60;1.40;;;;;;645625;212;31529;-71
2021/08/04 10:57:34;;;;;;;1.80;1.10;;;18.00;1.40;;;;;;646730;212;31570;-71
2021/08/04 11:00:19;;;;;;;1.33;1.10;;;18.00;1.40;;;;;;645949;212;31567;-73
2021/08/04 11:03:00;;;;;;;1.30;1.20;;;18.00;1.40;;;;;;645596;212;31517;-71
2021/08/04 11:05:59;;;;;;;1.12;1.00;;;17.80;1.40;;;;;;640125;212;31552;-71
2021/08/04 11:08:46;;;;;;;1.10;0.95;;;17.80;1.40;;;;;;646195;212;31516;-70
2021/08/04 11:11:40;;;;;;;1.20;1.10;;;17.90;1.40;;;;;;646955;216;33771;-71
2021/08/04 11:14:32;;;;;;;1.40;1.10;;;17.80;1.40;;;;;;646854;212;31535;-71
2021/08/04 11:17:34;;;;;;;1.17;1.08;;;17.60;1.40;;;;;;645256;216;31497;-71
2021/08/04 11:20:17;;;;;;;1.00;0.90;;;17.50;1.40;;;;;;647247;216;32043;-72
2021/08/04 11:22:58;;;;;;;0.98;0.88;;;17.60;1.40;;;;;;645596;216;32129;-71
2021/08/04 11:25:41;;;;;;;1.23;1.12;;;18.10;1.40;;;;;;646704;216;32264;-70
2021/08/04 11:28:26;;;;;;;1.23;0.82;;;18.30;1.40;;;;;;646947;216;31616;-72
2021/08/04 11:31:09;;;;;;;1.15;0.82;;;18.10;1.40;;;;;;647036;216;31627;-71
2021/08/04 11:36:09;;;;;;;0.90;0.80;;;18.90;1.40;;;-143.44;100.00;122422.95;646085;216;31623;-71
2021/08/04 11:39:04;;;;;;;1.17;1.00;;;19.30;1.40;;;;;;646245;213;31537;-71
2021/08/04 11:41:49;;;;;;;1.40;1.30;;;19.10;1.40;;;;;;633205;221;31699;-71
2021/08/04 11:44:29;;;;;;;1.33;0.88;;;19.10;1.40;;;;;;646692;212;31502;-71
2021/08/04 11:47:10;;;;;;;1.60;1.10;;;20.00;1.40;;;;;;618676;226;31817;-71
2021/08/04 11:49:54;;;;;;;1.60;0.80;;;19.70;1.40;;;;;;620368;225;32221;-71
2021/08/04 11:52:35;;;;;;;0.90;0.80;;;20.60;1.40;;;;;;646135;212;32189;-71
2021/08/04 11:55:18;;;;;;;1.05;0.93;;;20.50;1.40;;;;;;646192;216;31502;-71
2021/08/04 11:58:08;;;;;;;0.98;0.88;;;20.10;1.40;;;;;;646122;216;31910;-71
2021/08/04 12:00:55;;;;;;;1.37;1.20;;;20.10;1.40;;;;;;618138;222;32454;-71
2021/08/04 12:03:36;;;;;;;1.30;1.00;;;20.30;1.40;;;;;;646844;216;31676;-71
2021/08/04 12:06:23;;;;;;;1.25;0.93;;;21.00;1.40;;;;;;646511;216;31531;-71
2021/08/04 12:09:16;;;;;;;1.20;0.80;;;19.60;1.40;;;;;;630542;217;32004;-71
2021/08/04 12:11:57;;;;;;;1.00;0.90;;;19.20;1.40;;;;;;646115;212;42669;-71
2021/08/04 12:16:41;;;;;;;1.00;0.88;;;19.60;1.40;;;;;;645694;216;31725;-71
2021/08/04 12:19:30;;;;;;;1.40;1.10;;;20.30;1.40;;;;;;645658;212;31736;-71
2021/08/04 12:22:24;;;;;;;1.20;0.80;;;20.10;1.40;;;;;;646987;212;31570;-71
2021/08/04 12:25:06;;;;;;;1.30;1.10;;;19.80;1.40;;;;;;645049;216;34706;-72
2021/08/04 12:27:49;;;;;;;1.60;1.00;;;20.00;1.40;;;;;;646624;216;31650;-72